createdAt,value
2022-09-14T00:01:40.366Z,2.70
2022-09-14T00:04:11.906Z,3.23
2022-09-14T00:06:41.690Z,2.60
2022-09-14T00:09:14.917Z,3.20
2022-09-14T00:11:44.661Z,3.07
2022-09-14T00:14:13.082Z,2.70
2022-09-14T00:16:42.766Z,2.97
2022-09-14T00:19:18.244Z,3.00
2022-09-14T00:21:46.683Z,2.97
2022-09-14T00:24:14.745Z,2.83
2022-09-14T00:26:44.662Z,2.80
2022-09-14T00:29:13.357Z,3.20
2022-09-14T00:31:42.089Z,2.80
2022-09-14T00:34:15.406Z,3.00
2022-09-14T00:36:46.313Z,3.00
2022-09-14T00:39:15.409Z,2.97
2022-09-14T00:41:47.595Z,3.37
2022-09-14T00:44:54.938Z,2.80
2022-09-14T00:47:23.512Z,3.53
2022-09-14T00:49:52.050Z,3.00
2022-09-14T00:52:25.778Z,2.83
2022-09-14T00:54:56.416Z,3.13
2022-09-14T00:57:28.800Z,2.90
2022-09-14T00:59:57.424Z,2.92
2022-09-14T01:02:28.375Z,2.97
2022-09-14T01:04:57.323Z,3.00
2022-09-14T01:07:38.499Z,3.67
2022-09-14T01:10:20.331Z,3.53
2022-09-14T01:12:57.600Z,3.27
2022-09-14T01:15:32.862Z,3.20
2022-09-14T01:18:08.291Z,3.70
2022-09-14T01:20:41.506Z,3.17
2022-09-14T01:23:14.632Z,3.50
2022-09-14T01:26:13.993Z,3.13
2022-09-14T01:28:49.534Z,2.93
2022-09-14T01:31:23.744Z,3.60
2022-09-14T01:33:57.983Z,3.90
2022-09-14T01:36:30.274Z,5.30
2022-09-14T01:38:59.970Z,5.70
2022-09-14T01:41:31.659Z,5.05
2022-09-14T01:44:07.498Z,5.53
2022-09-14T01:46:41.962Z,5.97
2022-09-14T01:49:15.449Z,4.60
2022-09-14T01:51:48.104Z,5.10
2022-09-14T01:54:24.257Z,4.63
2022-09-14T01:56:55.291Z,3.60
2022-09-14T01:59:28.073Z,2.97
2022-09-14T02:02:02.781Z,2.75
2022-09-14T02:04:37.871Z,3.53
2022-09-14T02:07:06.260Z,3.28
2022-09-14T02:09:34.611Z,4.10
2022-09-14T02:12:03.601Z,2.80
2022-09-14T02:14:33.697Z,3.28
2022-09-14T02:17:01.997Z,2.70
2022-09-14T02:19:36.172Z,3.80
2022-09-14T02:22:04.551Z,5.30
2022-09-14T02:24:33.222Z,4.15
2022-09-14T02:27:03.344Z,4.13
2022-09-14T02:29:33.217Z,4.78
2022-09-14T02:32:11.169Z,6.45
2022-09-14T02:34:50.891Z,4.05
2022-09-14T02:37:24.318Z,6.47
2022-09-14T02:40:01.989Z,6.82
2022-09-14T02:42:37.787Z,8.25
2022-09-14T02:45:18.437Z,6.15
2022-09-14T02:47:56.314Z,6.45
2022-09-14T02:50:30.477Z,7.65
2022-09-14T02:53:04.683Z,6.00
2022-09-14T02:55:41.411Z,5.60
2022-09-14T02:58:10.803Z,5.85
2022-09-14T03:00:43.216Z,5.45
2022-09-14T03:03:12.878Z,5.00
2022-09-14T03:05:41.401Z,6.10
2022-09-14T03:08:10.279Z,7.40
2022-09-14T03:10:39.263Z,10.13
2022-09-14T03:13:07.405Z,8.88
2022-09-14T03:15:36.411Z,6.68
2022-09-14T03:18:10.007Z,4.53
2022-09-14T03:20:40.915Z,5.05
2022-09-14T03:23:10.919Z,4.32
2022-09-14T03:25:40.176Z,4.97
2022-09-14T03:28:09.837Z,4.60
2022-09-14T03:30:38.565Z,4.90
2022-09-14T03:33:08.535Z,4.50
2022-09-14T03:35:36.612Z,4.90
2022-09-14T03:38:04.748Z,5.10
2022-09-14T03:40:32.790Z,4.40
2022-09-14T03:43:00.918Z,4.55
2022-09-14T03:45:29.465Z,4.10
2022-09-14T03:47:57.600Z,5.13
2022-09-14T03:50:27.316Z,4.35
2022-09-14T03:52:56.323Z,6.75
2022-09-14T03:55:24.656Z,3.60
2022-09-14T03:57:55.199Z,3.72
2022-09-14T04:00:23.835Z,4.00
2022-09-14T04:02:51.925Z,3.55
2022-09-14T04:05:21.942Z,4.15
2022-09-14T04:07:51.681Z,3.90
2022-09-14T04:10:19.909Z,4.00
2022-09-14T04:12:48.278Z,3.65
2022-09-14T04:15:16.631Z,4.28
2022-09-14T04:17:44.904Z,4.13
2022-09-14T04:20:13.157Z,4.43
2022-09-14T04:22:41.447Z,4.70
2022-09-14T04:25:11.582Z,4.30
2022-09-14T04:27:39.678Z,5.25
2022-09-14T04:30:08.708Z,4.50
2022-09-14T04:32:36.858Z,4.45
2022-09-14T04:35:07.312Z,3.95
2022-09-14T04:37:35.524Z,4.57
2022-09-14T04:40:04.278Z,4.60
2022-09-14T04:42:33.945Z,4.00
2022-09-14T04:49:53.504Z,6.85
2022-09-14T04:52:22.070Z,6.88
2022-09-14T04:54:50.310Z,4.40
2022-09-14T04:57:18.419Z,4.60
2022-09-14T04:59:48.010Z,6.28
2022-09-14T05:02:16.248Z,8.40
2022-09-14T05:04:44.664Z,7.82
2022-09-14T05:07:13.286Z,6.78
2022-09-14T05:09:41.556Z,6.13
2022-09-14T05:12:09.880Z,5.32
2022-09-14T05:14:38.142Z,5.20
2022-09-14T05:17:07.783Z,5.18
2022-09-14T05:19:36.260Z,5.47
2022-09-14T05:22:04.667Z,4.80
2022-09-14T05:24:32.826Z,5.30
2022-09-14T05:27:02.338Z,5.47
2022-09-14T05:29:31.819Z,5.72
2022-09-14T05:32:00.148Z,4.20
2022-09-14T05:34:29.582Z,5.05
2022-09-14T05:36:57.629Z,5.70
2022-09-14T05:39:26.109Z,5.50
2022-09-14T05:41:54.080Z,6.05
2022-09-14T05:44:22.327Z,5.68
2022-09-14T05:46:50.528Z,5.55
2022-09-14T05:49:18.849Z,4.78
2022-09-14T05:51:48.244Z,4.45
2022-09-14T05:54:16.554Z,4.30
2022-09-14T05:56:44.926Z,4.10
2022-09-14T05:59:13.173Z,4.45
2022-09-14T06:01:41.393Z,4.05
2022-09-14T06:04:11.348Z,5.93
2022-09-14T06:06:39.689Z,5.05
2022-09-14T06:09:09.311Z,4.13
2022-09-14T06:11:37.771Z,4.93
2022-09-14T06:14:07.187Z,6.38
2022-09-14T06:16:35.817Z,5.53
2022-09-14T06:19:04.608Z,6.15
2022-09-14T06:21:34.504Z,6.13
2022-09-14T06:24:03.394Z,6.80
2022-09-14T06:26:33.382Z,6.25
2022-09-14T06:29:01.697Z,6.78
2022-09-14T06:31:32.179Z,5.95
2022-09-14T06:34:00.396Z,8.05
2022-09-14T06:36:29.932Z,7.35
2022-09-14T06:39:00.567Z,6.90
2022-09-14T06:41:30.791Z,7.65
2022-09-14T06:44:02.009Z,7.75
2022-09-14T06:46:32.028Z,6.72
2022-09-14T06:49:01.753Z,5.90
2022-09-14T06:51:32.636Z,7.00
2022-09-14T06:54:02.107Z,7.18
2022-09-14T06:56:32.812Z,6.00
2022-09-14T06:59:02.781Z,5.88
2022-09-14T07:01:31.098Z,6.40
2022-09-14T07:04:00.977Z,6.72
2022-09-14T07:06:32.711Z,6.75
2022-09-14T07:09:05.300Z,6.32
2022-09-14T07:11:34.176Z,6.65
2022-09-14T07:14:03.942Z,5.05
2022-09-14T07:16:34.660Z,6.20
2022-09-14T07:19:04.265Z,4.90
2022-09-14T07:21:33.590Z,6.28
2022-09-14T07:24:02.330Z,6.10
2022-09-14T07:26:32.564Z,6.15
2022-09-14T07:29:05.525Z,4.97
2022-09-14T07:31:35.751Z,5.57
2022-09-14T07:34:05.494Z,6.03
2022-09-14T07:36:35.574Z,5.68
2022-09-14T07:39:05.512Z,4.30
2022-09-14T07:41:34.796Z,4.90
2022-09-14T07:44:06.284Z,4.70
2022-09-14T07:46:39.330Z,5.43
2022-09-14T07:49:08.600Z,4.85
2022-09-14T07:51:37.568Z,5.60
2022-09-14T07:54:07.067Z,6.00
2022-09-14T07:56:36.134Z,5.20
2022-09-14T08:01:54.149Z,6.57
2022-09-14T08:04:22.583Z,5.60
2022-09-14T08:06:50.607Z,4.78
2022-09-14T08:09:18.716Z,5.10
2022-09-14T08:11:47.349Z,4.85
2022-09-14T08:14:16.823Z,5.20
2022-09-14T08:16:45.022Z,5.60
2022-09-14T08:19:15.577Z,4.60
2022-09-14T08:21:46.821Z,4.75
2022-09-14T08:24:17.429Z,5.05
2022-09-14T08:26:46.266Z,4.37
2022-09-14T08:29:14.676Z,3.88
2022-09-14T08:31:45.624Z,4.45
2022-09-14T08:34:15.415Z,3.93
2022-09-14T08:36:44.575Z,4.80
2022-09-14T08:39:15.633Z,5.10
2022-09-14T08:41:51.597Z,4.50
2022-09-14T08:44:24.346Z,5.20
2022-09-14T08:46:59.484Z,4.95
2022-09-14T08:49:46.950Z,5.65
2022-09-14T08:52:24.096Z,5.63
2022-09-14T08:54:55.702Z,4.80
2022-09-14T08:57:30.642Z,4.27
2022-09-14T09:00:06.240Z,5.23
2022-09-14T09:03:05.141Z,4.43
2022-09-14T09:05:41.516Z,4.57
2022-09-14T09:08:18.388Z,5.03
2022-09-14T09:10:48.733Z,4.43
2022-09-14T09:13:20.790Z,4.53
2022-09-14T09:15:51.249Z,4.40
2022-09-14T09:18:24.823Z,5.17
2022-09-14T09:20:57.727Z,4.30
2022-09-14T09:23:33.094Z,4.87
2022-09-14T09:26:04.582Z,4.90
2022-09-14T09:28:33.667Z,4.47
2022-09-14T09:31:05.275Z,4.70
2022-09-14T09:33:55.055Z,4.27
2022-09-14T09:36:25.526Z,4.77
2022-09-14T09:38:53.772Z,4.20
2022-09-14T09:41:25.611Z,4.40
2022-09-14T09:44:02.689Z,4.30
2022-09-14T09:46:32.798Z,3.87
2022-09-14T09:49:05.475Z,3.97
2022-09-14T09:51:36.280Z,4.40
2022-09-14T09:54:09.480Z,4.40
2022-09-14T09:56:41.734Z,4.07
2022-09-14T09:59:28.215Z,4.57
2022-09-14T10:01:57.568Z,4.00
2022-09-14T10:04:29.950Z,4.27
2022-09-14T10:06:58.872Z,4.00
2022-09-14T10:09:28.901Z,4.43
2022-09-14T10:12:01.648Z,4.33
2022-09-14T10:14:32.534Z,4.20
2022-09-14T10:17:08.910Z,3.97
2022-09-14T10:19:39.655Z,3.80
2022-09-14T10:22:24.264Z,4.63
2022-09-14T10:24:55.414Z,4.13
2022-09-14T10:27:39.846Z,4.80
2022-09-14T10:30:15.187Z,4.10
2022-09-14T10:32:47.444Z,3.90
2022-09-14T10:35:17.659Z,5.20
2022-09-14T10:37:59.633Z,3.87
2022-09-14T10:40:36.791Z,4.63
2022-09-14T10:43:14.794Z,3.67
2022-09-14T10:45:50.472Z,4.10
2022-09-14T10:48:40.845Z,4.30
2022-09-14T10:51:30.646Z,4.00
2022-09-14T10:54:06.469Z,4.10
2022-09-14T10:56:46.085Z,4.67
2022-09-14T10:59:25.195Z,4.20
2022-09-14T11:02:20.443Z,3.90
2022-09-14T11:05:06.454Z,3.73
2022-09-14T11:07:44.846Z,3.83
2022-09-14T11:10:20.087Z,4.17
2022-09-14T11:13:02.398Z,3.50
2022-09-14T11:15:38.576Z,3.90
2022-09-14T11:18:19.759Z,3.37
2022-09-14T11:20:58.191Z,3.07
2022-09-14T11:23:38.657Z,4.13
2022-09-14T11:26:13.277Z,4.10
2022-09-14T11:28:45.758Z,3.30
2022-09-14T11:31:21.663Z,3.13
2022-09-14T11:33:55.771Z,3.50
2022-09-14T11:36:28.977Z,4.60
2022-09-14T11:39:07.123Z,3.90
2022-09-14T11:41:42.896Z,3.87
2022-09-14T11:44:17.588Z,4.40
2022-09-14T11:46:51.765Z,3.50
2022-09-14T11:49:26.168Z,3.40
2022-09-14T11:51:59.406Z,3.43
2022-09-14T11:54:29.002Z,3.77
2022-09-14T11:57:01.303Z,3.67
2022-09-14T11:59:53.504Z,3.30
2022-09-14T12:02:49.202Z,3.17
2022-09-14T12:05:43.463Z,3.30
2022-09-14T12:08:38.117Z,3.73
2022-09-14T12:11:26.745Z,3.50
2022-09-14T12:14:30.043Z,3.07
2022-09-14T12:17:22.559Z,3.80
2022-09-14T12:20:00.375Z,3.40
2022-09-14T12:22:32.805Z,3.47
2022-09-14T12:25:04.497Z,3.30
2022-09-14T12:27:38.850Z,3.27
2022-09-14T12:30:53.413Z,3.67
2022-09-14T12:34:05.743Z,3.70
2022-09-14T12:37:12.275Z,3.47
2022-09-14T12:40:00.485Z,4.00
2022-09-14T12:42:32.332Z,3.37
2022-09-14T12:45:38.701Z,4.53
2022-09-14T12:48:09.288Z,4.57
2022-09-14T12:50:40.673Z,4.20
2022-09-14T12:53:29.255Z,4.30
2022-09-14T12:56:04.193Z,4.53
2022-09-14T12:58:48.743Z,4.37
2022-09-14T13:01:30.903Z,3.77
2022-09-14T13:03:59.601Z,3.67
2022-09-14T13:06:42.512Z,3.00
2022-09-14T13:09:20.292Z,4.33
2022-09-14T13:11:55.568Z,3.27
2022-09-14T13:14:28.715Z,2.93
2022-09-14T13:16:59.680Z,2.65
2022-09-14T13:19:31.474Z,2.70
2022-09-14T13:22:02.508Z,2.58
2022-09-14T13:24:34.765Z,2.80
2022-09-14T13:27:05.438Z,1.80
2022-09-14T13:29:34.996Z,1.77
2022-09-14T13:32:04.272Z,1.90
2022-09-14T13:34:38.325Z,2.25
2022-09-14T13:37:06.984Z,1.98
2022-09-14T13:39:37.801Z,2.10
2022-09-14T13:42:07.610Z,1.67
2022-09-14T13:44:42.257Z,2.20
2022-09-14T13:47:14.172Z,1.92
2022-09-14T13:49:43.895Z,2.25
2022-09-14T13:52:20.537Z,2.30
2022-09-14T13:54:49.226Z,2.20
2022-09-14T13:57:19.601Z,1.70
2022-09-14T14:00:17.163Z,1.85
2022-09-14T14:02:49.068Z,2.13
2022-09-14T14:05:27.268Z,2.28
2022-09-14T14:07:56.838Z,1.80
2022-09-14T14:10:29.794Z,1.90
2022-09-14T14:12:58.421Z,1.70
2022-09-14T14:15:38.843Z,1.52
2022-09-14T14:18:32.218Z,2.22
2022-09-14T14:21:14.265Z,1.63
2022-09-14T14:24:02.807Z,1.92
2022-09-14T14:26:31.551Z,1.75
2022-09-14T14:29:09.384Z,1.73
2022-09-14T14:31:39.428Z,1.55
2022-09-14T14:34:18.852Z,1.65
2022-09-14T14:36:48.076Z,2.20
2022-09-14T14:39:16.021Z,1.60
2022-09-14T14:41:44.394Z,1.55
2022-09-14T14:44:16.852Z,1.52
2022-09-14T14:46:46.656Z,1.20
2022-09-14T14:49:15.851Z,1.92
2022-09-14T14:51:44.544Z,1.70
2022-09-14T14:54:16.746Z,1.45
2022-09-14T14:56:46.704Z,1.58
2022-09-14T14:59:27.176Z,1.10
2022-09-14T15:01:57.587Z,1.40
2022-09-14T15:04:25.797Z,1.42
2022-09-14T15:06:54.842Z,1.60
2022-09-14T15:09:25.524Z,1.40
2022-09-14T15:11:55.221Z,1.30
2022-09-14T15:14:27.105Z,1.10
2022-09-14T15:17:00.414Z,1.20
2022-09-14T15:19:30.273Z,1.40
2022-09-14T15:22:01.283Z,1.50
2022-09-14T15:24:30.531Z,1.10
2022-09-14T15:26:59.605Z,2.05
2022-09-14T15:29:29.497Z,1.50
2022-09-14T15:32:00.068Z,1.13
2022-09-14T15:34:28.638Z,1.08
2022-09-14T15:36:58.138Z,1.45
2022-09-14T15:39:28.090Z,1.20
2022-09-14T15:41:59.941Z,1.75
2022-09-14T15:44:28.290Z,1.60
2022-09-14T15:46:57.744Z,1.55
2022-09-14T15:49:28.006Z,1.20
2022-09-14T15:51:58.075Z,1.10
2022-09-14T15:54:32.082Z,1.20
2022-09-14T15:57:03.595Z,1.20
2022-09-14T15:59:31.893Z,1.15
2022-09-14T16:02:00.455Z,1.33
2022-09-14T16:04:30.491Z,1.83
2022-09-14T16:06:58.790Z,1.35
2022-09-14T16:09:27.531Z,1.33
2022-09-14T16:11:59.649Z,1.45
2022-09-14T16:14:29.944Z,1.52
2022-09-14T16:17:02.076Z,1.33
2022-09-14T16:19:34.569Z,1.27
2022-09-14T16:22:02.814Z,1.80
2022-09-14T16:24:32.087Z,1.67
2022-09-14T16:27:01.129Z,1.52
2022-09-14T16:29:29.285Z,1.90
2022-09-14T16:31:57.673Z,1.75
2022-09-14T16:34:28.344Z,2.38
2022-09-14T16:36:58.799Z,1.80
2022-09-14T16:39:29.432Z,2.03
2022-09-14T16:41:58.644Z,1.95
2022-09-14T16:44:28.858Z,2.17
2022-09-14T16:46:59.326Z,2.03
2022-09-14T16:49:28.568Z,1.77
2022-09-14T16:52:00.706Z,2.13
2022-09-14T16:54:32.170Z,1.70
2022-09-14T16:57:01.487Z,1.95
2022-09-14T16:59:29.759Z,1.80
2022-09-14T17:01:57.937Z,1.92
2022-09-14T17:04:31.502Z,2.13
2022-09-14T17:07:04.365Z,2.20
2022-09-14T17:09:33.228Z,2.25
2022-09-14T17:12:01.494Z,1.90
2022-09-14T17:14:31.657Z,1.60
2022-09-14T17:17:04.908Z,2.42
2022-09-14T17:19:43.431Z,2.00
2022-09-14T17:22:16.389Z,2.22
2022-09-14T17:24:52.049Z,1.85
2022-09-14T17:27:27.769Z,2.15
2022-09-14T17:29:59.215Z,2.97
2022-09-14T17:32:28.469Z,2.40
2022-09-14T17:34:58.181Z,2.00
2022-09-14T17:37:33.232Z,2.47
2022-09-14T17:40:10.855Z,1.80
2022-09-14T17:42:43.200Z,2.10
2022-09-14T17:45:16.147Z,2.20
2022-09-14T17:47:52.089Z,2.20
2022-09-14T17:50:24.025Z,1.90
2022-09-14T17:57:45.954Z,2.13
2022-09-14T18:00:17.039Z,2.42
2022-09-14T18:02:55.370Z,2.53
2022-09-14T18:05:30.034Z,3.47
2022-09-14T18:08:05.805Z,2.33
2022-09-14T18:10:39.462Z,2.03
2022-09-14T18:13:09.828Z,2.40
2022-09-14T18:15:45.474Z,2.80
2022-09-14T18:18:22.471Z,2.60
2022-09-14T18:20:53.529Z,2.33
2022-09-14T18:23:22.633Z,2.67
2022-09-14T18:25:56.252Z,2.08
2022-09-14T18:28:29.813Z,2.33
2022-09-14T18:31:10.701Z,2.42
2022-09-14T18:33:52.045Z,2.30
2022-09-14T18:36:23.622Z,2.40
2022-09-14T18:38:54.605Z,2.45
2022-09-14T18:41:25.771Z,2.10
2022-09-14T18:43:55.864Z,2.80
2022-09-14T18:46:28.988Z,2.22
2022-09-14T18:49:00.718Z,2.60
2022-09-14T18:51:36.592Z,2.20
2022-09-14T18:54:14.211Z,2.85
2022-09-14T18:56:45.723Z,2.30
2022-09-14T18:59:21.082Z,2.60
2022-09-14T19:01:57.344Z,2.78
2022-09-14T19:04:31.712Z,3.03
2022-09-14T19:07:04.445Z,2.22
2022-09-14T19:09:44.956Z,2.00
2022-09-14T19:12:19.861Z,2.35
2022-09-14T19:14:52.844Z,2.33
2022-09-14T19:17:23.776Z,2.88
2022-09-14T19:19:52.666Z,2.55
2022-09-14T19:22:21.308Z,2.50
2022-09-14T19:24:52.318Z,2.88
2022-09-14T19:27:28.234Z,3.10
2022-09-14T19:30:01.810Z,1.98
2022-09-14T19:32:32.001Z,2.60
2022-09-14T19:35:01.358Z,4.03
2022-09-14T19:37:36.276Z,2.95
2022-09-14T19:40:10.100Z,2.92
2022-09-14T19:42:39.786Z,2.72
2022-09-14T19:45:13.114Z,2.72
2022-09-14T19:47:47.448Z,3.03
2022-09-14T19:50:21.472Z,2.40
2022-09-14T19:52:51.166Z,2.85
2022-09-14T19:55:25.757Z,3.38
2022-09-14T19:57:56.776Z,2.90
2022-09-14T20:00:32.950Z,2.17
2022-09-14T20:03:03.227Z,3.20
2022-09-14T20:05:36.643Z,2.40
2022-09-14T20:08:12.838Z,2.35
2022-09-14T20:10:44.331Z,2.80
2022-09-14T20:13:17.196Z,2.50
2022-09-14T20:15:49.793Z,2.53
2022-09-14T20:18:21.370Z,2.25
2022-09-14T20:20:56.152Z,2.25
2022-09-14T20:23:32.361Z,2.42
2022-09-14T20:26:09.763Z,2.15
2022-09-14T20:28:44.066Z,2.55
2022-09-14T20:31:19.892Z,2.00
2022-09-14T20:33:53.987Z,2.30
2022-09-14T20:36:30.649Z,2.45
2022-09-14T20:39:05.636Z,2.20
2022-09-14T20:41:37.108Z,1.90
2022-09-14T20:44:07.089Z,2.03
2022-09-14T20:46:41.687Z,2.40
2022-09-14T20:49:13.264Z,2.63
2022-09-14T20:51:42.276Z,2.30
2022-09-14T20:54:13.834Z,2.50
2022-09-14T20:56:42.780Z,2.20
2022-09-14T20:59:13.335Z,2.50
2022-09-14T21:01:45.322Z,2.17
2022-09-14T21:04:15.604Z,2.92
2022-09-14T21:06:45.787Z,2.83
2022-09-14T21:09:15.681Z,2.10
2022-09-14T21:11:45.894Z,2.45
2022-09-14T21:14:15.325Z,2.17
2022-09-14T21:16:46.936Z,2.47
2022-09-14T21:19:17.074Z,1.75
2022-09-14T21:21:45.449Z,2.13
2022-09-14T21:24:14.752Z,2.35
2022-09-14T21:26:44.185Z,1.90
2022-09-14T21:29:14.447Z,2.53
2022-09-14T21:31:44.311Z,1.98
2022-09-14T21:34:13.438Z,1.70
2022-09-14T21:36:43.452Z,2.25
2022-09-14T21:39:13.676Z,2.00
2022-09-14T21:41:43.428Z,1.77
2022-09-14T21:44:11.655Z,1.90
2022-09-14T21:46:39.774Z,2.15
2022-09-14T21:49:14.575Z,2.03
2022-09-14T21:51:44.606Z,2.22
2022-09-14T21:54:13.847Z,1.98
2022-09-14T21:56:44.405Z,2.28
2022-09-14T21:59:14.936Z,2.30
2022-09-14T22:01:43.744Z,1.98
2022-09-14T22:04:15.722Z,1.85
2022-09-14T22:06:45.674Z,2.42
2022-09-14T22:09:14.822Z,2.17
2022-09-14T22:11:43.217Z,2.30
2022-09-14T22:14:14.093Z,2.22
2022-09-14T22:16:42.631Z,2.10
2022-09-14T22:19:17.261Z,2.33
2022-09-14T22:21:45.748Z,1.98
2022-09-14T22:24:15.694Z,2.45
2022-09-14T22:26:44.857Z,2.90
2022-09-14T22:29:14.351Z,2.63
2022-09-14T22:31:43.944Z,2.30
2022-09-14T22:34:15.006Z,2.67
2022-09-14T22:36:43.754Z,2.35
2022-09-14T22:39:12.323Z,2.17
2022-09-14T22:41:41.212Z,2.20
2022-09-14T22:44:09.878Z,2.40
2022-09-14T22:46:37.845Z,2.28
2022-09-14T22:49:06.061Z,2.95
2022-09-14T22:51:35.595Z,2.95
2022-09-14T22:54:03.635Z,2.80
2022-09-14T22:56:33.225Z,2.58
2022-09-14T22:59:03.446Z,3.08
2022-09-14T23:01:35.060Z,2.13
2022-09-14T23:04:06.244Z,2.25
2022-09-14T23:06:42.357Z,2.97
2022-09-14T23:09:13.455Z,2.20
2022-09-14T23:11:42.318Z,2.53
2022-09-14T23:14:10.365Z,3.30
2022-09-14T23:16:38.605Z,2.88
2022-09-14T23:19:07.774Z,2.35
2022-09-14T23:21:37.177Z,2.50
2022-09-14T23:24:07.746Z,2.17
2022-09-14T23:26:36.081Z,2.25
2022-09-14T23:29:06.925Z,2.05
2022-09-14T23:31:34.891Z,2.42
2022-09-14T23:34:05.802Z,1.73
2022-09-14T23:36:34.406Z,2.00
2022-09-14T23:39:03.820Z,1.77
2022-09-14T23:41:31.850Z,1.60
2022-09-14T23:44:00.894Z,1.67
2022-09-14T23:46:29.356Z,1.45
2022-09-14T23:48:57.487Z,1.40
2022-09-14T23:51:25.513Z,1.80
2022-09-14T23:53:53.924Z,1.30
2022-09-14T23:56:23.669Z,1.23
2022-09-14T23:58:52.148Z,1.30
